createdAt,value
2018-12-14T00:01:34.125Z,19.67
2018-12-14T00:04:03.016Z,21.53
2018-12-14T00:06:32.330Z,21.15
2018-12-14T00:09:01.199Z,20.30
2018-12-14T00:11:30.072Z,18.60
2018-12-14T00:13:59.092Z,20.30
2018-12-14T00:16:27.957Z,17.53
2018-12-14T00:18:56.767Z,19.90
2018-12-14T00:21:25.544Z,19.70
2018-12-14T00:23:54.431Z,19.20
2018-12-14T00:26:23.227Z,20.10
2018-12-14T00:28:52.117Z,18.90
2018-12-14T00:31:20.855Z,19.53
2018-12-14T00:33:49.680Z,19.87
2018-12-14T00:36:18.576Z,18.90
2018-12-14T00:38:47.466Z,21.30
2018-12-14T00:41:16.245Z,19.87
2018-12-14T00:43:45.135Z,20.23
2018-12-14T00:46:14.136Z,19.63
2018-12-14T00:48:43.179Z,19.70
2018-12-14T00:51:11.916Z,21.67
2018-12-14T00:53:40.690Z,17.83
2018-12-14T00:56:09.486Z,19.37
2018-12-14T00:58:38.206Z,19.80
2018-12-14T01:01:07.066Z,20.03
2018-12-14T01:03:35.935Z,19.13
2018-12-14T01:06:04.826Z,18.50
2018-12-14T01:08:33.729Z,16.87
2018-12-14T01:11:02.507Z,18.67
2018-12-14T01:13:31.285Z,19.57
2018-12-14T01:16:00.279Z,16.97
2018-12-14T01:18:29.165Z,18.73
2018-12-14T01:20:57.982Z,17.70
2018-12-14T01:23:26.956Z,17.20
2018-12-14T01:25:55.950Z,17.80
2018-12-14T01:28:24.779Z,18.40
2018-12-14T01:30:53.479Z,18.10
2018-12-14T01:33:22.499Z,17.53
2018-12-14T01:35:51.350Z,20.00
2018-12-14T01:38:20.175Z,17.83
2018-12-14T01:40:48.964Z,17.53
2018-12-14T01:43:17.750Z,17.90
2018-12-14T01:45:46.648Z,16.97
2018-12-14T01:48:15.436Z,17.57
2018-12-14T01:50:44.292Z,19.23
2018-12-14T01:53:13.216Z,18.43
2018-12-14T01:55:42.092Z,18.67
2018-12-14T01:58:10.785Z,19.07
2018-12-14T02:00:39.764Z,17.92
2018-12-14T02:03:09.415Z,19.03
2018-12-14T02:05:38.976Z,17.93
2018-12-14T02:08:08.435Z,18.50
2018-12-14T02:10:37.886Z,17.30
2018-12-14T02:13:07.360Z,17.37
2018-12-14T02:15:36.069Z,17.57
2018-12-14T02:18:04.955Z,17.10
2018-12-14T02:20:33.856Z,19.65
2018-12-14T02:23:02.746Z,16.60
2018-12-14T02:25:31.519Z,17.47
2018-12-14T02:28:00.418Z,17.50
2018-12-14T02:30:37.924Z,16.80
2018-12-14T02:33:06.685Z,17.90
2018-12-14T02:35:35.509Z,16.93
2018-12-14T02:38:04.672Z,17.13
2018-12-14T02:40:33.566Z,17.27
2018-12-14T02:43:02.547Z,16.83
2018-12-14T02:45:31.310Z,17.82
2018-12-14T02:48:00.137Z,17.83
2018-12-14T02:50:28.910Z,17.37
2018-12-14T02:52:57.689Z,18.80
2018-12-14T02:55:26.565Z,16.27
2018-12-14T02:57:55.487Z,17.23
2018-12-14T03:00:24.442Z,19.17
2018-12-14T03:02:53.149Z,19.25
2018-12-14T03:05:22.028Z,17.53
2018-12-14T03:07:50.839Z,17.30
2018-12-14T03:10:19.611Z,17.70
2018-12-14T03:12:48.394Z,17.43
2018-12-14T03:15:17.131Z,16.67
2018-12-14T03:17:46.380Z,17.73
2018-12-14T03:20:15.165Z,19.33
2018-12-14T03:22:44.002Z,16.83
2018-12-14T03:25:12.856Z,18.57
2018-12-14T03:27:41.738Z,18.67
2018-12-14T03:30:10.667Z,19.33
2018-12-14T03:32:39.548Z,17.33
2018-12-14T03:35:08.809Z,19.10
2018-12-14T03:37:37.707Z,18.50
2018-12-14T03:40:06.797Z,19.33
2018-12-14T03:42:35.766Z,17.47
2018-12-14T03:45:05.012Z,19.73
2018-12-14T03:47:33.977Z,16.87
2018-12-14T03:50:02.856Z,16.80
2018-12-14T03:52:31.600Z,17.63
2018-12-14T03:55:00.438Z,19.13
2018-12-14T03:57:29.150Z,18.20
2018-12-14T03:59:58.217Z,19.03
2018-12-14T04:02:27.096Z,20.30
2018-12-14T04:04:55.952Z,17.70
2018-12-14T04:07:24.890Z,17.70
2018-12-14T04:09:53.768Z,17.47
2018-12-14T04:12:22.559Z,21.37
2018-12-14T04:14:51.549Z,17.97
2018-12-14T04:17:20.307Z,19.23
2018-12-14T04:19:49.111Z,18.30
2018-12-14T04:22:17.956Z,19.37
2018-12-14T04:24:46.714Z,19.90
2018-12-14T04:27:15.687Z,18.50
2018-12-14T04:29:44.421Z,17.13
2018-12-14T04:32:13.299Z,19.77
2018-12-14T04:34:42.093Z,18.73
2018-12-14T04:37:10.782Z,16.77
2018-12-14T04:39:39.800Z,17.03
2018-12-14T04:42:08.552Z,17.37
2018-12-14T04:44:37.388Z,20.83
2018-12-14T04:47:06.594Z,17.83
2018-12-14T04:49:35.573Z,18.03
2018-12-14T04:52:08.562Z,19.42
2018-12-14T04:54:37.447Z,17.20
2018-12-14T04:57:06.318Z,19.83
2018-12-14T04:59:35.326Z,18.30
2018-12-14T05:02:04.218Z,16.63
2018-12-14T05:04:32.927Z,18.83
2018-12-14T05:07:01.686Z,18.03
2018-12-14T05:09:30.610Z,19.07
2018-12-14T05:11:59.478Z,19.47
2018-12-14T05:14:28.375Z,16.80
2018-12-14T05:16:57.218Z,21.03
2018-12-14T05:19:26.248Z,17.83
2018-12-14T05:21:55.266Z,20.00
2018-12-14T05:24:24.222Z,17.70
2018-12-14T05:26:54.038Z,17.73
2018-12-14T05:29:23.327Z,20.75
2018-12-14T05:31:52.520Z,22.37
2018-12-14T05:34:21.616Z,18.83
2018-12-14T05:36:50.591Z,19.20
2018-12-14T05:39:19.391Z,23.83
2018-12-14T05:41:48.180Z,21.53
2018-12-14T05:44:17.075Z,27.53
2018-12-14T05:46:46.167Z,23.00
2018-12-14T05:49:15.050Z,27.03
2018-12-14T05:51:43.814Z,25.17
2018-12-14T05:54:12.838Z,29.17
2018-12-14T05:56:43.469Z,24.33
2018-12-14T05:59:12.447Z,23.03
2018-12-14T06:01:41.557Z,25.97
2018-12-14T06:04:10.578Z,28.13
2018-12-14T06:06:39.498Z,21.73
2018-12-14T06:09:08.725Z,25.27
2018-12-14T06:11:37.730Z,25.93
2018-12-14T06:14:06.607Z,22.20
2018-12-14T06:16:35.437Z,25.30
2018-12-14T06:19:04.685Z,25.13
2018-12-14T06:21:33.456Z,28.07
2018-12-14T06:24:02.169Z,23.13
2018-12-14T06:26:30.947Z,24.70
2018-12-14T06:28:59.837Z,32.70
2018-12-14T06:31:28.616Z,26.40
2018-12-14T06:33:57.523Z,33.93
2018-12-14T06:36:26.199Z,27.00
2018-12-14T06:38:55.197Z,30.40
2018-12-14T06:41:24.177Z,24.80
2018-12-14T06:43:53.077Z,30.35
2018-12-14T06:46:21.862Z,29.65
2018-12-14T06:48:50.740Z,26.50
2018-12-14T06:51:19.537Z,29.45
2018-12-14T06:53:48.427Z,25.23
2018-12-14T06:56:19.840Z,24.03
2018-12-14T06:58:51.794Z,28.03
2018-12-14T07:01:23.260Z,28.17
2018-12-14T07:03:56.883Z,25.30
2018-12-14T07:06:28.143Z,24.80
2018-12-14T07:08:58.345Z,23.83
2018-12-14T07:11:30.825Z,27.23
2018-12-14T07:14:04.992Z,20.27
2018-12-14T07:16:35.485Z,22.07
2018-12-14T07:19:06.428Z,23.27
2018-12-14T07:21:36.665Z,23.63
2018-12-14T07:24:07.639Z,21.33
2018-12-14T07:26:37.862Z,22.60
2018-12-14T07:29:07.600Z,22.23
2018-12-14T07:31:36.367Z,19.77
2018-12-14T07:34:05.157Z,21.33
2018-12-14T07:36:35.815Z,23.47
2018-12-14T07:39:08.121Z,21.67
2018-12-14T07:41:39.609Z,22.50
2018-12-14T07:44:09.007Z,21.77
2018-12-14T07:46:37.929Z,23.63
2018-12-14T07:49:10.302Z,17.80
2018-12-14T07:51:40.883Z,18.83
2018-12-14T07:54:10.592Z,20.37
2018-12-14T07:56:41.184Z,18.00
2018-12-14T07:59:11.920Z,18.13
2018-12-14T08:01:40.747Z,21.00
2018-12-14T08:04:09.940Z,20.70
2018-12-14T08:06:43.038Z,20.20
2018-12-14T08:09:13.453Z,17.23
2018-12-14T08:11:43.516Z,21.63
2018-12-14T08:14:13.852Z,19.73
2018-12-14T08:16:43.803Z,20.67
2018-12-14T08:19:13.409Z,20.30
2018-12-14T08:21:43.831Z,18.83
2018-12-14T08:24:13.950Z,19.40
2018-12-14T08:26:44.848Z,18.17
2018-12-14T08:29:13.787Z,18.20
2018-12-14T08:31:42.541Z,19.52
2018-12-14T08:34:11.466Z,20.95
2018-12-14T08:36:40.185Z,19.63
2018-12-14T08:39:09.023Z,21.37
2018-12-14T08:41:38.320Z,19.27
2018-12-14T08:44:07.164Z,19.73
2018-12-14T08:46:37.281Z,19.40
2018-12-14T08:49:06.172Z,20.40
2018-12-14T08:51:34.940Z,21.30
2018-12-14T08:54:03.706Z,19.53
2018-12-14T08:56:32.477Z,18.60
2018-12-14T08:59:01.349Z,20.23
2018-12-14T09:01:30.456Z,19.40
2018-12-14T09:04:00.161Z,20.27
2018-12-14T09:06:28.952Z,20.00
2018-12-14T09:08:57.827Z,21.50
2018-12-14T09:11:26.729Z,17.27
2018-12-14T09:13:55.535Z,16.70
2018-12-14T09:16:24.439Z,18.07
2018-12-14T09:18:53.150Z,19.97
2018-12-14T09:21:21.888Z,18.77
2018-12-14T09:23:50.738Z,17.13
2018-12-14T09:26:19.767Z,18.90
2018-12-14T09:28:52.207Z,17.70
2018-12-14T09:31:21.427Z,18.43
2018-12-14T09:33:50.183Z,17.27
2018-12-14T09:36:19.108Z,17.90
2018-12-14T09:38:47.881Z,17.13
2018-12-14T09:41:16.608Z,18.70
2018-12-14T09:43:45.359Z,18.37
2018-12-14T09:46:15.032Z,16.97
2018-12-14T09:48:43.801Z,16.57
2018-12-14T09:51:12.693Z,17.27
2018-12-14T09:53:41.307Z,16.03
2018-12-14T09:56:10.162Z,15.93
2018-12-14T09:58:39.098Z,16.50
2018-12-14T10:01:07.897Z,17.77
2018-12-14T10:03:36.726Z,16.20
2018-12-14T10:06:05.972Z,17.97
2018-12-14T10:08:34.760Z,17.10
2018-12-14T10:11:03.582Z,17.07
2018-12-14T10:13:32.404Z,19.30
2018-12-14T10:16:01.128Z,14.80
2018-12-14T10:18:30.112Z,17.80
2018-12-14T10:20:58.896Z,18.30
2018-12-14T10:23:27.683Z,16.67
2018-12-14T10:25:56.493Z,18.07
2018-12-14T10:28:25.346Z,16.73
2018-12-14T10:30:54.157Z,16.43
2018-12-14T10:33:22.851Z,17.13
2018-12-14T10:35:52.229Z,15.67
2018-12-14T10:38:21.333Z,17.67
2018-12-14T10:40:50.111Z,15.83
2018-12-14T10:43:19.214Z,16.13
2018-12-14T10:45:48.822Z,16.70
2018-12-14T10:48:17.721Z,15.77
2018-12-14T10:50:46.587Z,17.37
2018-12-14T10:53:15.592Z,17.77
2018-12-14T10:55:44.365Z,15.77
2018-12-14T10:58:13.162Z,17.20
2018-12-14T11:00:46.145Z,16.73
2018-12-14T11:03:15.032Z,16.77
2018-12-14T11:05:44.018Z,14.60
2018-12-14T11:08:12.813Z,17.17
2018-12-14T11:10:41.795Z,15.90
2018-12-14T11:13:10.587Z,16.93
2018-12-14T11:15:39.793Z,15.23
2018-12-14T11:18:08.722Z,15.77
2018-12-14T11:20:37.564Z,16.27
2018-12-14T11:23:07.072Z,17.50
2018-12-14T11:25:35.944Z,18.67
2018-12-14T11:28:04.836Z,23.40
2018-12-14T11:30:33.726Z,20.37
2018-12-14T11:33:02.622Z,21.35
2018-12-14T11:35:31.399Z,17.73
2018-12-14T11:38:00.098Z,18.80
2018-12-14T11:40:28.835Z,18.37
2018-12-14T11:42:57.772Z,16.93
2018-12-14T11:45:26.646Z,19.00
2018-12-14T11:47:55.390Z,19.93
2018-12-14T11:50:24.425Z,19.20
2018-12-14T11:52:53.211Z,19.83
2018-12-14T11:55:21.959Z,22.90
2018-12-14T11:57:50.792Z,19.13
2018-12-14T12:00:19.691Z,21.67
2018-12-14T12:02:48.431Z,21.63
2018-12-14T12:05:17.362Z,21.17
2018-12-14T12:07:46.447Z,19.67
2018-12-14T12:10:15.228Z,20.57
2018-12-14T12:12:44.062Z,20.53
2018-12-14T12:15:12.922Z,19.23
2018-12-14T12:17:41.742Z,19.03
2018-12-14T12:20:10.617Z,17.30
2018-12-14T12:22:39.465Z,21.67
2018-12-14T12:25:08.372Z,19.47
2018-12-14T12:27:37.161Z,16.40
2018-12-14T12:30:07.154Z,21.30
2018-12-14T12:32:35.912Z,22.03
2018-12-14T12:35:04.886Z,19.83
2018-12-14T12:37:34.140Z,21.50
2018-12-14T12:40:02.971Z,19.73
2018-12-14T12:42:31.809Z,19.63
2018-12-14T12:45:00.703Z,19.87
2018-12-14T12:47:29.486Z,21.62
2018-12-14T12:49:58.272Z,18.73
2018-12-14T12:52:27.198Z,20.17
2018-12-14T12:54:56.050Z,18.77
2018-12-14T12:57:24.844Z,20.80
2018-12-14T12:59:53.639Z,21.97
2018-12-14T13:02:22.522Z,22.73
2018-12-14T13:04:51.400Z,17.47
2018-12-14T13:07:20.284Z,23.30
2018-12-14T13:09:49.095Z,20.02
2018-12-14T13:12:17.960Z,17.33
2018-12-14T13:14:46.718Z,20.97
2018-12-14T13:17:15.544Z,21.33
2018-12-14T13:19:44.523Z,22.53
2018-12-14T13:22:13.415Z,20.83
2018-12-14T13:24:42.311Z,17.30
2018-12-14T13:27:11.090Z,21.87
2018-12-14T13:29:39.822Z,18.53
2018-12-14T13:32:08.561Z,19.07
2018-12-14T13:34:37.313Z,21.83
2018-12-14T13:37:06.423Z,23.77
2018-12-14T13:39:35.230Z,18.37
2018-12-14T13:42:04.124Z,21.27
2018-12-14T13:44:33.106Z,19.10
2018-12-14T13:47:01.835Z,21.43
2018-12-14T13:49:30.692Z,19.67
2018-12-14T13:51:59.681Z,21.27
2018-12-14T13:54:28.455Z,18.90
2018-12-14T13:56:57.353Z,19.33
2018-12-14T13:59:26.235Z,20.07
2018-12-14T14:01:55.032Z,25.10
2018-12-14T14:04:23.785Z,20.20
2018-12-14T14:06:52.799Z,21.23
2018-12-14T14:09:22.054Z,18.77
2018-12-14T14:11:50.802Z,21.70
2018-12-14T14:14:19.783Z,19.70
2018-12-14T14:16:49.491Z,20.63
2018-12-14T14:19:18.371Z,21.40
2018-12-14T14:21:47.154Z,21.73
2018-12-14T14:24:15.935Z,20.03
2018-12-14T14:26:44.933Z,21.60
2018-12-14T14:29:13.931Z,21.23
2018-12-14T14:31:42.815Z,21.07
2018-12-14T14:34:11.602Z,18.67
2018-12-14T14:36:40.502Z,22.13
2018-12-14T14:39:09.391Z,22.40
2018-12-14T14:41:38.381Z,23.13
2018-12-14T14:44:07.479Z,24.18
2018-12-14T14:46:36.248Z,19.57
2018-12-14T14:49:05.061Z,22.60
2018-12-14T14:51:34.231Z,20.87
2018-12-14T14:54:03.005Z,22.57
2018-12-14T14:56:31.785Z,34.70
2018-12-14T14:59:00.609Z,33.23
2018-12-14T15:01:29.338Z,33.73
2018-12-14T15:03:58.166Z,34.67
2018-12-14T15:06:27.062Z,31.73
2018-12-14T15:08:56.131Z,27.87
2018-12-14T15:11:25.336Z,30.43
2018-12-14T15:13:54.166Z,26.87
2018-12-14T15:16:22.920Z,29.27
2018-12-14T15:18:51.981Z,28.53
2018-12-14T15:21:20.796Z,27.33
2018-12-14T15:23:49.556Z,27.43
2018-12-14T15:26:18.382Z,30.03
2018-12-14T15:28:47.372Z,29.67
2018-12-14T15:31:16.504Z,28.60
2018-12-14T15:33:45.239Z,25.65
2018-12-14T15:36:14.142Z,30.05
2018-12-14T15:38:42.975Z,28.37
2018-12-14T15:41:11.805Z,31.07
2018-12-14T15:43:40.690Z,32.37
2018-12-14T15:46:09.424Z,31.23
2018-12-14T15:48:38.382Z,32.38
2018-12-14T15:51:07.156Z,22.93
2018-12-14T15:53:36.027Z,30.83
2018-12-14T15:56:04.942Z,33.40
2018-12-14T15:58:33.832Z,28.40
2018-12-14T16:01:02.599Z,26.50
2018-12-14T16:03:31.599Z,26.17
2018-12-14T16:06:00.591Z,27.87
2018-12-14T16:08:29.483Z,27.60
2018-12-14T16:10:58.371Z,30.15
2018-12-14T16:13:27.273Z,33.27
2018-12-14T16:15:56.153Z,27.20
2018-12-14T16:18:25.039Z,28.80
2018-12-14T16:20:53.805Z,31.57
2018-12-14T16:23:22.723Z,32.17
2018-12-14T16:25:51.986Z,42.30
2018-12-14T16:28:20.792Z,57.17
2018-12-14T16:30:49.631Z,110.37
2018-12-14T16:33:18.421Z,57.93
2018-12-14T16:35:47.157Z,50.70
2018-12-14T16:38:16.026Z,46.87
2018-12-14T16:40:44.830Z,56.30
2018-12-14T16:43:13.731Z,45.65
2018-12-14T16:45:47.396Z,47.90
2018-12-14T16:48:18.233Z,47.30
2018-12-14T16:50:47.865Z,50.45
2018-12-14T16:53:18.331Z,45.08
2018-12-14T16:55:49.517Z,44.90
2018-12-14T16:58:19.056Z,37.83
2018-12-14T17:00:50.941Z,35.60
2018-12-14T17:03:20.746Z,34.23
2018-12-14T17:05:50.333Z,38.55
2018-12-14T17:08:20.942Z,38.38
2018-12-14T17:10:52.678Z,45.17
2018-12-14T17:13:24.208Z,38.40
2018-12-14T17:15:55.015Z,39.13
2018-12-14T17:18:25.537Z,38.77
2018-12-14T17:20:55.292Z,41.57
2018-12-14T17:23:27.609Z,46.00
2018-12-14T17:25:58.109Z,29.97
2018-12-14T17:28:28.599Z,44.80
2018-12-14T17:30:59.372Z,46.00
2018-12-14T17:33:35.874Z,43.33
2018-12-14T17:36:02.058Z,35.57
2018-12-14T17:38:31.095Z,39.87
2018-12-14T17:41:03.184Z,43.40
2018-12-14T17:43:33.999Z,31.43
2018-12-14T17:46:04.759Z,36.65
2018-12-14T17:48:37.054Z,37.67
2018-12-14T17:51:06.470Z,43.53
2018-12-14T17:53:36.187Z,30.77
2018-12-14T17:56:06.594Z,35.03
2018-12-14T17:58:36.500Z,34.83
2018-12-14T18:01:05.914Z,34.23
2018-12-14T18:03:35.713Z,41.05
2018-12-14T18:06:06.274Z,27.63
2018-12-14T18:08:36.532Z,32.33
2018-12-14T18:11:05.970Z,33.28
2018-12-14T18:13:37.134Z,33.67
2018-12-14T18:16:08.117Z,31.60
2018-12-14T18:18:38.734Z,26.13
2018-12-14T18:21:10.294Z,35.10
2018-12-14T18:23:43.632Z,32.43
2018-12-14T18:26:13.020Z,28.03
2018-12-14T18:28:42.617Z,30.40
2018-12-14T18:31:14.070Z,39.47
2018-12-14T18:33:42.866Z,22.37
2018-12-14T18:36:12.374Z,29.07
2018-12-14T18:38:41.196Z,29.73
2018-12-14T18:41:09.946Z,27.87
2018-12-14T18:43:42.724Z,30.13
2018-12-14T18:46:11.552Z,32.43
2018-12-14T18:48:41.047Z,37.87
2018-12-14T18:51:09.892Z,22.80
2018-12-14T18:53:44.733Z,23.30
2018-12-14T18:56:14.367Z,27.67
2018-12-14T18:58:43.326Z,26.87
2018-12-14T19:01:12.323Z,27.50
2018-12-14T19:03:41.155Z,22.67
2018-12-14T19:06:10.614Z,26.37
2018-12-14T19:08:39.453Z,26.10
2018-12-14T19:11:11.665Z,31.10
2018-12-14T19:13:40.553Z,19.50
2018-12-14T19:16:09.535Z,21.10
2018-12-14T19:18:38.433Z,20.83
2018-12-14T19:21:11.792Z,29.37
2018-12-14T19:23:43.674Z,28.80
2018-12-14T19:26:13.282Z,26.43
2018-12-14T19:28:45.039Z,24.53
2018-12-14T19:31:14.503Z,25.30
2018-12-14T19:33:47.773Z,28.47
2018-12-14T19:36:17.460Z,32.80
2018-12-14T19:38:46.455Z,25.03
2018-12-14T19:41:16.044Z,23.70
2018-12-14T19:43:45.035Z,25.77
2018-12-14T19:46:21.643Z,30.90
2018-12-14T19:48:51.715Z,31.53
2018-12-14T19:51:20.713Z,24.50
2018-12-14T19:53:49.590Z,30.93
2018-12-14T19:56:19.508Z,30.13
2018-12-14T19:58:54.437Z,25.80
2018-12-14T20:01:24.882Z,24.00
2018-12-14T20:03:53.755Z,28.20
2018-12-14T20:06:26.258Z,30.90
2018-12-14T20:08:55.112Z,26.27
2018-12-14T20:11:24.008Z,23.07
2018-12-14T20:13:59.032Z,25.93
2018-12-14T20:16:29.908Z,28.07
2018-12-14T20:19:02.147Z,24.97
2018-12-14T20:21:33.952Z,27.93
2018-12-14T20:24:03.267Z,26.80
2018-12-14T20:26:32.463Z,25.97
2018-12-14T20:29:03.654Z,26.83
2018-12-14T20:31:33.542Z,28.07
2018-12-14T20:34:02.540Z,26.83
2018-12-14T20:36:31.433Z,25.80
2018-12-14T20:39:00.413Z,33.13
2018-12-14T20:41:29.213Z,32.63
2018-12-14T20:44:01.538Z,30.03
2018-12-14T20:46:33.342Z,28.03
2018-12-14T20:49:03.312Z,32.97
2018-12-14T20:51:34.393Z,26.37
2018-12-14T20:54:03.282Z,29.07
2018-12-14T20:56:32.276Z,33.97
2018-12-14T20:59:01.149Z,34.23
2018-12-14T21:01:30.552Z,31.70
2018-12-14T21:04:01.179Z,32.77
2018-12-14T21:06:31.190Z,28.50
2018-12-14T21:09:04.582Z,28.43
2018-12-14T21:11:37.164Z,36.70
2018-12-14T21:14:09.067Z,30.30
2018-12-14T21:16:38.467Z,31.67
2018-12-14T21:19:07.548Z,28.47
2018-12-14T21:21:36.523Z,30.27
2018-12-14T21:24:08.582Z,30.83
2018-12-14T21:26:37.673Z,26.53
2018-12-14T21:29:07.792Z,26.17
2018-12-14T21:31:37.287Z,25.03
2018-12-14T21:34:06.283Z,26.47
2018-12-14T21:36:35.578Z,30.77
2018-12-14T21:39:06.357Z,27.20
2018-12-14T21:41:35.095Z,28.60
2018-12-14T21:44:03.902Z,30.67
2018-12-14T21:46:32.913Z,27.47
2018-12-14T21:49:01.765Z,24.87
2018-12-14T21:51:30.570Z,27.47
2018-12-14T21:53:59.415Z,27.03
2018-12-14T21:56:28.311Z,27.00
2018-12-14T21:58:57.113Z,27.43
2018-12-14T22:01:25.897Z,30.13
2018-12-14T22:03:54.619Z,25.40
2018-12-14T22:06:23.583Z,27.37
2018-12-14T22:08:52.464Z,27.00
2018-12-14T22:11:21.447Z,26.07
2018-12-14T22:13:51.056Z,27.90
2018-12-14T22:16:19.862Z,28.67
2018-12-14T22:18:48.744Z,27.53
2018-12-14T22:21:17.523Z,29.77
2018-12-14T22:23:46.424Z,26.77
2018-12-14T22:26:15.377Z,29.17
2018-12-14T22:28:44.193Z,27.87
2018-12-14T22:31:13.193Z,27.33
2018-12-14T22:33:42.036Z,30.55
2018-12-14T22:36:10.895Z,28.63
2018-12-14T22:38:39.753Z,32.43
2018-12-14T22:41:08.528Z,29.30
2018-12-14T22:43:37.422Z,28.17
2018-12-14T22:46:06.136Z,25.90
2018-12-14T22:48:34.990Z,26.83
2018-12-14T22:51:03.992Z,30.43
2018-12-14T22:53:32.870Z,29.83
2018-12-14T22:56:01.873Z,31.13
2018-12-14T22:58:30.756Z,33.50
2018-12-14T23:00:59.737Z,27.73
2018-12-14T23:03:28.899Z,33.78
2018-12-14T23:05:57.833Z,30.83
2018-12-14T23:08:26.789Z,32.53
2018-12-14T23:10:55.657Z,44.53
2018-12-14T23:13:24.491Z,76.97
2018-12-14T23:15:53.265Z,47.27
2018-12-14T23:18:22.061Z,44.17
2018-12-14T23:20:50.922Z,49.93
2018-12-14T23:23:19.737Z,58.67
2018-12-14T23:25:48.629Z,57.27
2018-12-14T23:28:17.411Z,53.20
2018-12-14T23:30:46.307Z,50.60
2018-12-14T23:33:15.037Z,47.00
2018-12-14T23:35:43.988Z,48.93
2018-12-14T23:38:12.978Z,46.63
2018-12-14T23:40:41.730Z,42.67
2018-12-14T23:43:10.490Z,43.13
2018-12-14T23:45:39.337Z,38.27
2018-12-14T23:48:08.127Z,44.93
2018-12-14T23:50:36.960Z,42.77
2018-12-14T23:53:05.771Z,35.77
2018-12-14T23:55:34.576Z,36.23
2018-12-14T23:58:03.468Z,40.80
